New Castle, Kentucky
Current Conditions -  °F | °C
As of 9:53 AM on Sunday 21 Dec 2014 (Local Time) from KFFT Reporting Station
Haze Haze  
Wind Chill: 24°   Ceiling: Unl
Heat Index: 29°   Visibility: 5mi
Dew Point: 25°   Wind: 5mph
Humidity: 85%   Direction: 70°ENE
Pressure: 30.3"   Gusts: NA
Location:  38.43°N, 85.17°W
Report Text: KFFT 211453Z AUTO 07004KT 5SM BR CLR M02/M04 A3030 RMK AO2 SLP267 I3000 T10171039 51005
Loading
Personal Weather Stations






























Interactive Weather Map New forecast layout! Learn more

10-Day Weather Forecast

Advertisements
Track Severe Weather on mobile